Time;durP1;ratioP1;P1;durP2;ratioP2;P2;SDS_P1;SDS_P2;PMS_P1;PMS_P2;Temp;Humidity;BMP_temperature;BMP_pressure;BME280_temperature;BME280_humidity;BME280_pressure;Samples;Min_cycle;Max_cycle;Signal;HPM_P1;HPM_P2
2021/06/24 00:00:56;;;;;;;21.65;11.93;;;15.80;99.90;;;;;;5064001;28;20230;-58
2021/06/24 00:03:27;;;;;;;18.92;12.10;;;15.80;99.90;;;;;;5054769;28;20075;-59
2021/06/24 00:05:54;;;;;;;20.00;14.05;;;15.80;99.90;;;;;;5059249;28;20031;-60
2021/06/24 00:08:20;;;;;;;20.98;12.75;;;15.70;99.90;;;;;;5061036;28;20053;-64
2021/06/24 00:10:46;;;;;;;20.88;13.07;;;15.70;99.90;;;;;;5055846;28;20031;-62
2021/06/24 00:13:13;;;;;;;18.10;12.63;;;15.70;99.90;;;;;;5061920;28;20044;-62
2021/06/24 00:15:40;;;;;;;19.63;12.32;;;15.60;99.90;;;;;;5066727;28;20032;-62
2021/06/24 00:18:07;;;;;;;22.35;13.18;;;15.60;99.90;;;;;;5063927;28;20032;-57
2021/06/24 00:20:33;;;;;;;21.42;12.15;;;15.60;99.90;;;;;;5060049;28;20033;-62
2021/06/24 00:22:59;;;;;;;22.83;11.77;;;15.60;99.90;;;;;;5061518;28;20078;-60
2021/06/24 00:25:25;;;;;;;29.00;12.30;;;15.60;99.90;;;;;;5057756;28;20028;-59
2021/06/24 00:27:50;;;;;;;25.73;12.70;;;15.60;99.90;;;;;;5058853;28;20342;-62
2021/06/24 00:30:17;;;;;;;19.15;11.90;;;15.50;99.90;;;;;;5054607;28;20033;-62
2021/06/24 00:32:43;;;;;;;16.33;12.23;;;15.50;99.90;;;;;;5053634;28;20051;-60
2021/06/24 00:35:10;;;;;;;19.83;13.30;;;15.50;99.90;;;;;;5056445;28;20043;-61
2021/06/24 00:37:36;;;;;;;22.27;12.85;;;15.50;99.90;;;;;;5063019;28;20402;-60
2021/06/24 00:40:04;;;;;;;21.35;14.70;;;15.50;99.90;;;;;;5058659;28;20033;-61
2021/06/24 00:42:30;;;;;;;26.48;16.67;;;15.60;99.90;;;;;;5065207;28;20488;-62
2021/06/24 00:44:57;;;;;;;21.42;12.48;;;15.60;99.90;;;;;;5056981;28;20029;-59
2021/06/24 00:47:24;;;;;;;20.38;13.70;;;15.60;99.90;;;;;;5057860;28;20029;-60
2021/06/24 00:49:50;;;;;;;24.90;14.18;;;15.60;99.90;;;;;;5059680;28;20024;-61
2021/06/24 00:52:16;;;;;;;24.67;13.20;;;15.60;99.90;;;;;;5057286;28;20025;-61
2021/06/24 00:54:42;;;;;;;26.10;14.00;;;15.60;99.90;;;;;;5056192;28;20036;-58
2021/06/24 00:57:08;;;;;;;23.65;13.15;;;15.60;99.90;;;;;;5059631;28;20081;-62
2021/06/24 00:59:35;;;;;;;21.92;13.00;;;15.60;99.90;;;;;;5053496;28;20405;-62
2021/06/24 01:02:02;;;;;;;22.50;14.30;;;15.60;99.90;;;;;;5067885;28;20039;-62
2021/06/24 01:04:28;;;;;;;19.08;13.70;;;15.60;99.90;;;;;;5057085;28;20037;-60
2021/06/24 01:06:54;;;;;;;22.92;13.50;;;15.60;99.90;;;;;;5056995;28;20379;-62
2021/06/24 01:09:19;;;;;;;26.88;12.45;;;15.50;99.90;;;;;;5057797;28;20056;-63
2021/06/24 01:11:46;;;;;;;17.73;13.57;;;15.50;99.90;;;;;;5053411;28;20092;-62
2021/06/24 01:14:12;;;;;;;21.58;12.50;;;15.50;99.90;;;;;;5057620;28;20083;-62
2021/06/24 01:16:39;;;;;;;20.42;12.82;;;15.50;99.90;;;;;;5062145;28;20103;-63
2021/06/24 01:19:06;;;;;;;22.45;14.15;;;15.50;99.90;;;;;;5062846;28;20025;-62
2021/06/24 01:21:32;;;;;;;25.08;13.77;;;15.50;99.90;;;;;;5064621;28;20036;-63
2021/06/24 01:23:58;;;;;;;20.10;11.65;;;15.50;99.90;;;;;;5065263;28;20143;-58
2021/06/24 01:26:24;;;;;;;20.98;12.48;;;15.40;99.90;;;;;;5057217;28;20108;-62
2021/06/24 01:28:50;;;;;;;29.42;14.25;;;15.40;99.90;;;;;;5066406;28;20029;-62
2021/06/24 01:31:16;;;;;;;21.10;13.52;;;15.40;99.90;;;;;;5062953;28;20096;-60
2021/06/24 01:33:43;;;;;;;23.98;14.20;;;15.30;99.90;;;;;;5068467;28;20116;-62
2021/06/24 01:36:09;;;;;;;24.23;16.20;;;15.30;99.90;;;;;;5064368;28;20028;-60
2021/06/24 01:38:36;;;;;;;24.65;15.00;;;15.30;99.90;;;;;;5058313;28;20532;-61
2021/06/24 01:41:02;;;;;;;19.40;14.68;;;15.30;99.90;;;;;;5061333;28;20036;-63
2021/06/24 01:43:27;;;;;;;27.73;15.65;;;15.40;99.90;;;;;;5058387;28;20029;-60
2021/06/24 01:45:56;;;;;;;25.25;15.60;;;15.40;99.90;;;;;;5064801;28;20040;-62
2021/06/24 01:48:23;;;;;;;24.77;14.40;;;15.50;99.90;;;;;;5064610;28;20047;-61
2021/06/24 01:50:49;;;;;;;20.88;14.18;;;15.50;99.90;;;;;;5057695;28;20116;-59
2021/06/24 01:53:15;;;;;;;25.98;14.40;;;15.60;99.90;;;;;;5058337;28;20163;-61
2021/06/24 01:55:42;;;;;;;19.70;14.13;;;15.60;99.90;;;;;;5060982;28;20100;-62
2021/06/24 01:58:12;;;;;;;21.27;13.20;;;15.60;99.90;;;;;;5063446;28;20879;-60
2021/06/24 02:00:42;;;;;;;20.83;15.40;;;15.60;99.90;;;;;;5067822;28;20564;-62
2021/06/24 02:03:07;;;;;;;22.92;13.80;;;15.60;99.90;;;;;;5057191;28;20406;-63
2021/06/24 02:05:33;;;;;;;21.83;14.48;;;15.60;99.90;;;;;;5056179;28;20047;-61
2021/06/24 02:07:59;;;;;;;19.85;13.85;;;15.60;99.90;;;;;;5066474;28;20035;-62
2021/06/24 02:10:24;;;;;;;23.02;14.82;;;15.60;99.90;;;;;;5059499;28;20021;-62
2021/06/24 02:12:50;;;;;;;22.77;14.43;;;15.60;99.90;;;;;;5058232;28;20023;-62
2021/06/24 02:15:16;;;;;;;20.05;14.52;;;15.70;99.90;;;;;;5066280;28;20049;-62
2021/06/24 02:17:41;;;;;;;18.65;14.43;;;15.70;99.90;;;;;;5061633;28;20044;-62
2021/06/24 02:20:10;;;;;;;19.35;14.10;;;15.70;99.90;;;;;;5063395;28;20105;-62
2021/06/24 02:22:36;;;;;;;21.63;13.77;;;15.70;99.90;;;;;;5067322;28;20029;-62
2021/06/24 02:25:04;;;;;;;28.08;14.85;;;15.70;99.90;;;;;;5057547;28;20043;-61
2021/06/24 02:27:29;;;;;;;24.70;14.23;;;15.70;99.90;;;;;;5063159;28;20036;-61
2021/06/24 02:29:55;;;;;;;21.80;15.32;;;15.70;99.90;;;;;;5062551;28;20486;-63
2021/06/24 02:32:20;;;;;;;23.70;15.95;;;15.60;99.90;;;;;;5062341;28;20107;-60
2021/06/24 02:34:47;;;;;;;27.40;15.68;;;15.60;99.90;;;;;;5062207;28;20173;-63
2021/06/24 02:37:13;;;;;;;22.88;14.73;;;15.60;99.90;;;;;;5065962;28;20107;-60
2021/06/24 02:39:39;;;;;;;21.27;12.82;;;15.60;99.90;;;;;;5058461;28;20031;-62
2021/06/24 02:42:05;;;;;;;21.35;14.63;;;15.60;99.90;;;;;;5054273;28;20438;-63
2021/06/24 02:44:31;;;;;;;17.17;12.68;;;15.60;99.90;;;;;;5056874;28;20029;-64
2021/06/24 02:46:56;;;;;;;20.80;13.57;;;15.60;99.90;;;;;;5055938;28;20555;-63
2021/06/24 02:49:22;;;;;;;18.63;13.68;;;15.50;99.90;;;;;;5058976;28;20025;-63
2021/06/24 02:51:48;;;;;;;20.38;14.50;;;15.50;99.90;;;;;;5060328;28;20039;-62
2021/06/24 02:54:15;;;;;;;18.30;13.98;;;15.40;99.90;;;;;;5063007;28;20075;-63
2021/06/24 02:56:42;;;;;;;25.00;13.52;;;15.40;99.90;;;;;;5054375;28;20017;-62
2021/06/24 02:59:08;;;;;;;20.85;14.88;;;15.40;99.90;;;;;;5056631;28;20024;-62
2021/06/24 03:01:34;;;;;;;22.80;16.25;;;15.40;99.90;;;;;;5058215;28;20033;-62
2021/06/24 03:04:00;;;;;;;21.85;15.10;;;15.40;99.90;;;;;;5062943;28;20100;-61
2021/06/24 03:06:26;;;;;;;21.63;15.10;;;15.40;99.90;;;;;;5068671;28;20099;-62
2021/06/24 03:08:52;;;;;;;21.90;15.35;;;15.40;99.90;;;;;;5065764;28;20082;-61
2021/06/24 03:11:18;;;;;;;22.60;17.27;;;15.50;99.90;;;;;;5059283;28;20036;-59
2021/06/24 03:13:47;;;;;;;21.98;18.10;;;15.50;99.90;;;;;;5057644;28;20066;-62
2021/06/24 03:16:13;;;;;;;22.48;16.73;;;15.50;99.90;;;;;;5062490;28;20016;-64
2021/06/24 03:18:39;;;;;;;28.52;16.80;;;15.50;99.90;;;;;;5055768;28;20412;-62
2021/06/24 03:21:04;;;;;;;24.70;16.20;;;15.50;99.90;;;;;;5058629;28;20040;-62
2021/06/24 03:23:30;;;;;;;23.52;17.25;;;15.50;99.90;;;;;;5057113;28;20044;-62
2021/06/24 03:25:56;;;;;;;28.58;18.48;;;15.50;99.90;;;;;;5055743;28;20039;-63
2021/06/24 03:28:22;;;;;;;25.42;18.98;;;15.40;99.90;;;;;;5053545;28;20037;-62
2021/06/24 03:30:48;;;;;;;26.38;21.17;;;15.40;99.90;;;;;;5061747;28;20047;-62
2021/06/24 03:33:14;;;;;;;30.15;20.77;;;15.40;99.90;;;;;;5064339;28;20025;-62
2021/06/24 03:35:40;;;;;;;32.92;19.23;;;15.40;99.90;;;;;;5062137;28;20027;-62
2021/06/24 03:38:05;;;;;;;30.00;20.88;;;15.40;99.90;;;;;;5058412;28;20032;-60
2021/06/24 03:40:31;;;;;;;28.90;21.45;;;15.40;99.90;;;;;;5054066;28;20224;-60
2021/06/24 03:42:56;;;;;;;30.58;21.02;;;15.40;99.90;;;;;;5061243;28;20032;-62
2021/06/24 03:45:22;;;;;;;29.40;20.77;;;15.40;99.90;;;;;;5060432;28;20028;-62
2021/06/24 03:47:48;;;;;;;32.70;21.25;;;15.40;99.90;;;;;;5060223;28;20036;-63
2021/06/24 03:50:15;;;;;;;32.00;19.25;;;15.50;99.90;;;;;;5053849;28;20121;-62
2021/06/24 03:52:41;;;;;;;30.95;20.40;;;15.50;99.90;;;;;;5055744;28;20074;-60
2021/06/24 03:55:08;;;;;;;30.50;21.42;;;15.40;99.90;;;;;;5055104;28;20029;-63
2021/06/24 03:57:34;;;;;;;30.00;21.27;;;15.40;99.90;;;;;;5056614;28;20147;-63
2021/06/24 03:59:59;;;;;;;28.98;19.85;;;15.40;99.90;;;;;;5053156;28;20514;-63
2021/06/24 04:02:25;;;;;;;25.27;19.15;;;15.30;99.90;;;;;;5059328;28;20030;-60
2021/06/24 04:04:50;;;;;;;23.08;18.10;;;15.30;99.90;;;;;;5066507;28;20024;-61
2021/06/24 04:07:16;;;;;;;31.48;20.27;;;15.20;99.90;;;;;;5058890;28;20401;-62
2021/06/24 04:09:42;;;;;;;28.45;21.83;;;15.20;99.90;;;;;;5058418;28;20021;-62
2021/06/24 04:12:08;;;;;;;30.30;21.85;;;15.30;99.90;;;;;;5053172;28;20496;-62
2021/06/24 04:14:34;;;;;;;25.30;21.00;;;15.30;99.90;;;;;;5062704;28;20035;-61
2021/06/24 04:17:00;;;;;;;29.08;22.13;;;15.40;99.90;;;;;;5054714;28;20025;-61
2021/06/24 04:19:25;;;;;;;23.17;20.45;;;15.50;99.90;;;;;;5060176;28;20052;-61
2021/06/24 04:21:51;;;;;;;28.73;21.60;;;15.50;99.90;;;;;;5060660;28;20062;-60
2021/06/24 04:24:17;;;;;;;32.15;22.23;;;15.50;99.90;;;;;;5058747;28;20024;-63
2021/06/24 04:26:42;;;;;;;32.10;21.70;;;15.50;99.90;;;;;;5062592;28;20893;-61
2021/06/24 04:29:08;;;;;;;30.58;23.25;;;15.60;99.90;;;;;;5059585;28;20494;-61
2021/06/24 04:31:33;;;;;;;28.90;23.25;;;15.60;99.90;;;;;;5056071;28;20035;-63
2021/06/24 04:33:59;;;;;;;31.48;22.88;;;15.70;99.90;;;;;;5060969;28;20078;-62
2021/06/24 04:36:25;;;;;;;27.77;23.10;;;15.70;99.90;;;;;;5061765;28;20083;-62
2021/06/24 04:38:50;;;;;;;29.55;24.15;;;15.70;99.90;;;;;;5061384;28;20056;-61
2021/06/24 04:41:16;;;;;;;29.48;21.67;;;15.70;99.90;;;;;;5065043;28;20060;-62
2021/06/24 04:43:42;;;;;;;27.35;22.30;;;15.70;99.90;;;;;;5061270;28;20571;-61
2021/06/24 04:46:07;;;;;;;31.88;24.35;;;15.70;99.90;;;;;;5061101;28;20028;-60
2021/06/24 04:48:33;;;;;;;28.88;23.70;;;15.70;99.90;;;;;;5067447;28;20521;-60
2021/06/24 04:50:59;;;;;;;32.38;24.17;;;15.70;99.90;;;;;;5066442;28;20112;-62
2021/06/24 04:53:24;;;;;;;29.42;23.10;;;15.70;99.90;;;;;;5063178;28;20040;-56
2021/06/24 04:55:50;;;;;;;34.45;25.10;;;15.70;99.90;;;;;;5062094;28;20359;-60
2021/06/24 04:58:15;;;;;;;34.05;24.17;;;15.70;99.90;;;;;;5063186;28;20051;-62
2021/06/24 05:00:41;;;;;;;34.25;24.67;;;15.70;99.90;;;;;;5061720;28;20036;-61
2021/06/24 05:03:10;;;;;;;33.10;24.48;;;15.80;99.90;;;;;;5070564;28;20032;-62
2021/06/24 05:05:36;;;;;;;27.63;24.63;;;15.80;99.90;;;;;;5055084;28;20083;-61
2021/06/24 05:08:12;;;;;;;27.60;23.17;;;15.70;99.90;;;;;;5065138;28;20279;-63
2021/06/24 05:10:37;;;;;;;34.20;24.27;;;15.80;99.90;;;;;;5062986;28;20458;-62
2021/06/24 05:13:03;;;;;;;31.80;24.15;;;15.70;99.90;;;;;;5065204;28;20108;-63
2021/06/24 05:15:29;;;;;;;36.70;24.55;;;15.70;99.90;;;;;;5060129;28;20033;-62
2021/06/24 05:17:55;;;;;;;32.85;24.88;;;15.80;99.90;;;;;;5060636;28;20044;-63
2021/06/24 05:20:21;;;;;;;27.42;22.75;;;15.80;99.90;;;;;;5058954;28;20853;-63
2021/06/24 05:22:47;;;;;;;29.60;24.60;;;15.80;99.90;;;;;;5058584;28;20036;-63
2021/06/24 05:25:13;;;;;;;29.02;24.88;;;15.80;99.90;;;;;;5057750;28;20081;-62
2021/06/24 05:27:39;;;;;;;28.85;24.83;;;15.80;99.90;;;;;;5065626;28;20059;-62
2021/06/24 05:30:05;;;;;;;30.80;24.38;;;15.80;99.90;;;;;;5066817;28;20083;-62
2021/06/24 05:32:30;;;;;;;35.10;26.08;;;15.90;99.90;;;;;;5059756;28;20619;-62
2021/06/24 05:34:56;;;;;;;29.85;24.73;;;15.90;99.90;;;;;;5052441;28;20120;-63
2021/06/24 05:37:22;;;;;;;35.05;25.17;;;15.90;99.90;;;;;;5055660;28;20045;-61
2021/06/24 05:39:47;;;;;;;28.95;23.33;;;16.00;99.90;;;;;;5065596;28;20101;-63
2021/06/24 05:42:13;;;;;;;30.85;23.70;;;16.10;99.90;;;;;;5054892;28;20028;-60
2021/06/24 05:44:38;;;;;;;25.42;22.48;;;16.20;99.90;;;;;;5065110;28;20048;-61
2021/06/24 05:47:04;;;;;;;28.65;22.88;;;16.30;99.90;;;;;;5057540;28;20025;-62
2021/06/24 05:49:29;;;;;;;30.02;23.50;;;16.40;99.90;;;;;;5062849;28;20040;-62
2021/06/24 05:51:55;;;;;;;33.10;23.52;;;16.50;99.90;;;;;;5060345;28;20025;-64
2021/06/24 05:54:21;;;;;;;30.27;22.80;;;16.60;99.90;;;;;;5057207;28;20056;-63
2021/06/24 05:56:46;;;;;;;29.25;22.50;;;16.60;99.90;;;;;;5061906;28;20036;-63
2021/06/24 05:59:12;;;;;;;29.92;22.73;;;16.60;99.90;;;;;;5058215;28;20072;-64
2021/06/24 06:01:42;;;;;;;26.42;22.15;;;16.80;99.90;;;;;;5062369;28;20056;-62
2021/06/24 06:04:08;;;;;;;28.70;23.27;;;16.80;99.90;;;;;;5060181;28;20550;-63
2021/06/24 06:06:33;;;;;;;30.42;22.00;;;16.90;99.90;;;;;;5054869;28;20029;-57
2021/06/24 06:08:59;;;;;;;43.28;26.20;;;17.00;99.90;;;;;;5054793;28;20044;-61
2021/06/24 06:11:25;;;;;;;32.80;22.58;;;17.00;99.90;;;;;;5057530;28;20048;-63
2021/06/24 06:13:50;;;;;;;26.20;21.50;;;17.10;99.90;;;;;;5064299;28;20036;-61
2021/06/24 06:16:16;;;;;;;24.80;19.20;;;17.20;99.90;;;;;;5061606;28;20099;-63
2021/06/24 06:18:41;;;;;;;23.63;19.88;;;17.20;99.90;;;;;;5061046;28;20023;-64
2021/06/24 06:21:07;;;;;;;23.50;19.92;;;17.40;99.90;;;;;;5065049;28;20026;-63
2021/06/24 06:23:33;;;;;;;31.08;21.38;;;17.60;99.90;;;;;;5064220;28;20024;-62
2021/06/24 06:25:58;;;;;;;23.88;18.98;;;17.60;99.90;;;;;;5060764;28;20153;-63
2021/06/24 06:28:25;;;;;;;25.40;19.92;;;17.80;99.90;;;;;;5059490;28;20486;-63
2021/06/24 06:30:53;;;;;;;29.67;20.42;;;17.90;99.90;;;;;;5064278;28;20684;-63
2021/06/24 06:33:19;;;;;;;26.48;19.02;;;17.90;99.90;;;;;;5064194;28;20078;-64
2021/06/24 06:35:45;;;;;;;29.58;20.25;;;17.90;99.90;;;;;;5056010;28;20166;-63
2021/06/24 06:38:11;;;;;;;25.60;18.55;;;18.00;99.90;;;;;;5059882;28;20111;-66
2021/06/24 06:40:38;;;;;;;24.33;21.25;;;18.00;99.90;;;;;;5062952;28;20111;-63
2021/06/24 06:43:04;;;;;;;22.70;18.55;;;18.10;99.90;;;;;;5061480;28;20046;-63
2021/06/24 06:45:31;;;;;;;25.05;20.58;;;18.20;99.90;;;;;;5063097;28;20474;-64
2021/06/24 06:47:57;;;;;;;30.77;20.77;;;18.20;99.90;;;;;;5064338;28;20497;-64
2021/06/24 06:50:24;;;;;;;22.52;18.15;;;18.30;99.90;;;;;;5064360;28;20029;-64
2021/06/24 06:52:49;;;;;;;21.45;19.15;;;18.20;99.90;;;;;;5066820;28;20025;-64
2021/06/24 06:55:15;;;;;;;25.33;19.42;;;18.30;99.90;;;;;;5061594;28;20445;-64
2021/06/24 06:57:40;;;;;;;28.50;20.65;;;18.30;99.90;;;;;;5063783;28;20025;-64
2021/06/24 07:00:08;;;;;;;23.05;18.65;;;18.20;99.90;;;;;;5035998;28;20044;-64
2021/06/24 07:02:34;;;;;;;28.45;18.90;;;18.30;99.90;;;;;;5056462;28;20029;-58
2021/06/24 07:04:59;;;;;;;22.55;17.52;;;18.20;99.90;;;;;;5058872;28;20048;-62
2021/06/24 07:07:25;;;;;;;26.45;19.38;;;18.30;99.90;;;;;;5055751;28;20039;-64
2021/06/24 07:09:52;;;;;;;22.05;17.33;;;18.40;99.90;;;;;;5060936;28;20482;-65
2021/06/24 07:12:18;;;;;;;27.65;18.75;;;18.50;99.90;;;;;;5064931;28;20033;-63
2021/06/24 07:14:44;;;;;;;28.10;18.60;;;18.60;99.90;;;;;;5065474;28;20021;-64
2021/06/24 07:17:09;;;;;;;28.88;18.08;;;18.60;99.90;;;;;;5064834;28;20634;-60
2021/06/24 07:19:35;;;;;;;23.25;18.17;;;18.50;99.90;;;;;;5061967;28;20482;-63
2021/06/24 07:22:00;;;;;;;24.42;17.92;;;18.40;99.90;;;;;;5069441;28;20512;-63
2021/06/24 07:24:26;;;;;;;22.23;16.98;;;18.40;99.90;;;;;;5059240;28;20021;-64
2021/06/24 07:26:51;;;;;;;25.08;16.25;;;18.50;99.90;;;;;;5058257;28;20504;-66
2021/06/24 07:29:19;;;;;;;23.50;17.77;;;18.60;99.90;;;;;;5065244;28;20016;-64
2021/06/24 07:31:44;;;;;;;21.08;16.73;;;18.70;99.90;;;;;;5062934;28;20455;-64
2021/06/24 07:34:10;;;;;;;24.17;18.25;;;18.90;99.90;;;;;;5059776;28;20091;-64
2021/06/24 07:36:36;;;;;;;21.80;16.35;;;19.00;99.90;;;;;;5068008;28;20120;-61
2021/06/24 07:39:01;;;;;;;22.13;15.57;;;19.10;99.90;;;;;;5062259;28;20095;-63
2021/06/24 07:41:27;;;;;;;21.95;16.05;;;19.10;99.90;;;;;;5058936;28;20033;-64
2021/06/24 07:43:53;;;;;;;23.90;16.55;;;19.30;99.90;;;;;;5062224;28;20033;-62
2021/06/24 07:46:23;;;;;;;20.77;14.98;;;19.50;99.90;;;;;;5060550;28;20032;-63
2021/06/24 07:48:49;;;;;;;27.15;15.32;;;19.70;99.90;;;;;;5057642;28;20096;-63
2021/06/24 07:51:15;;;;;;;25.20;13.57;;;19.90;99.90;;;;;;5064138;28;20162;-63
2021/06/24 07:53:44;;;;;;;19.80;13.80;;;20.20;99.90;;;;;;5059243;28;20482;-63
2021/06/24 07:56:10;;;;;;;23.80;13.93;;;20.40;99.90;;;;;;5056978;28;20516;-62
2021/06/24 07:58:36;;;;;;;18.92;15.30;;;20.40;99.90;;;;;;5060336;28;20123;-58
2021/06/24 08:01:03;;;;;;;20.67;16.13;;;20.80;99.90;;;;;;5044470;28;20059;-63
2021/06/24 08:03:29;;;;;;;24.95;15.88;;;20.90;99.90;;;;;;5057104;28;20100;-62
2021/06/24 08:05:55;;;;;;;21.95;15.38;;;20.70;99.90;;;;;;5055956;28;20032;-62
2021/06/24 08:08:20;;;;;;;26.52;15.63;;;20.50;99.90;;;;;;5060712;28;20037;-61
2021/06/24 08:10:46;;;;;;;21.48;16.20;;;20.30;99.90;;;;;;5053395;28;20161;-63
2021/06/24 08:13:12;;;;;;;22.95;16.48;;;20.20;99.90;;;;;;5060784;28;20036;-63
2021/06/24 08:15:37;;;;;;;20.35;15.63;;;19.80;99.90;;;;;;5057607;28;20398;-62
2021/06/24 08:18:03;;;;;;;25.15;18.02;;;19.70;99.90;;;;;;5058431;28;20020;-62
2021/06/24 08:20:29;;;;;;;22.38;16.33;;;19.50;99.90;;;;;;5062833;28;20020;-62
2021/06/24 08:22:55;;;;;;;25.27;18.17;;;19.30;99.90;;;;;;5062088;28;20029;-62
2021/06/24 08:25:21;;;;;;;23.70;17.73;;;19.20;99.90;;;;;;5064130;28;20055;-62
2021/06/24 08:27:49;;;;;;;25.77;17.75;;;19.20;99.90;;;;;;5056786;28;20036;-63
2021/06/24 08:30:15;;;;;;;23.50;18.13;;;19.20;99.90;;;;;;5053412;28;20602;-62
2021/06/24 08:32:41;;;;;;;22.92;17.15;;;19.30;99.90;;;;;;5063063;28;20021;-64
2021/06/24 08:35:11;;;;;;;20.48;16.15;;;19.30;99.90;;;;;;5055241;28;20024;-63
2021/06/24 08:37:37;;;;;;;21.17;17.67;;;19.30;99.90;;;;;;5062371;28;20025;-63
2021/06/24 08:40:08;;;;;;;24.15;18.05;;;19.50;99.90;;;;;;5059374;28;20029;-62
2021/06/24 08:42:34;;;;;;;21.80;17.02;;;19.80;99.90;;;;;;5056581;28;20120;-63
2021/06/24 08:45:02;;;;;;;20.00;16.15;;;20.30;99.90;;;;;;5051217;28;20052;-61
2021/06/24 08:47:29;;;;;;;21.15;15.82;;;20.40;99.90;;;;;;5061714;28;20021;-64
2021/06/24 08:49:57;;;;;;;22.00;15.02;;;20.60;99.90;;;;;;5055584;28;20017;-61
2021/06/24 08:52:23;;;;;;;23.42;14.65;;;20.90;99.90;;;;;;5057167;28;20104;-61
2021/06/24 08:54:49;;;;;;;18.83;13.88;;;21.40;99.90;;;;;;5052048;28;20434;-62
2021/06/24 08:57:15;;;;;;;24.88;15.70;;;21.60;99.90;;;;;;5049890;28;20037;-62
2021/06/24 08:59:41;;;;;;;18.63;14.57;;;22.00;99.90;;;;;;5055102;28;20032;-60
2021/06/24 09:02:11;;;;;;;21.35;14.75;;;22.20;99.90;;;;;;5062474;28;20028;-63
2021/06/24 09:04:39;;;;;;;18.98;14.00;;;22.50;99.90;;;;;;5058948;28;20039;-60
2021/06/24 09:07:08;;;;;;;16.55;13.10;;;22.70;99.90;;;;;;5055035;28;20485;-61
2021/06/24 09:09:36;;;;;;;20.25;13.02;;;22.50;99.90;;;;;;5047579;28;20413;-61
2021/06/24 09:12:04;;;;;;;18.20;13.00;;;22.60;99.90;;;;;;5057426;28;20028;-61
2021/06/24 09:14:38;;;;;;;18.67;13.25;;;23.00;99.90;;;;;;5060378;28;20021;-63
2021/06/24 09:17:04;;;;;;;19.95;13.40;;;23.00;99.90;;;;;;5057347;28;20454;-62
2021/06/24 09:19:30;;;;;;;21.48;13.40;;;23.60;99.90;;;;;;5061049;28;20107;-62
2021/06/24 09:22:04;;;;;;;22.60;11.35;;;23.50;99.60;;;;;;5054579;28;20017;-63
2021/06/24 09:24:30;;;;;;;18.77;13.15;;;23.90;99.90;;;;;;5056391;28;20135;-63
2021/06/24 09:26:58;;;;;;;14.93;13.27;;;24.50;98.90;;;;;;5057964;28;20100;-62
2021/06/24 09:29:24;;;;;;;13.55;12.02;;;24.30;98.60;;;;;;5058300;28;20079;-64
2021/06/24 09:31:52;;;;;;;15.32;12.77;;;24.70;98.30;;;;;;5062206;28;20052;-62
2021/06/24 09:34:18;;;;;;;16.05;11.77;;;24.30;97.50;;;;;;5055664;28;20036;-61
2021/06/24 09:36:47;;;;;;;17.48;12.57;;;24.60;98.20;;;;;;5056106;28;20087;-60
2021/06/24 09:39:29;;;;;;;16.75;10.63;;;25.30;96.60;;;;;;5061305;28;20028;-63
2021/06/24 09:41:59;;;;;;;13.20;10.70;;;26.00;95.40;;;;;;5060191;28;20394;-64
2021/06/24 09:44:24;;;;;;;16.23;10.18;;;26.60;94.60;;;;;;5062980;28;20033;-62
2021/06/24 09:46:51;;;;;;;12.65;10.60;;;26.30;94.20;;;;;;5068915;28;20433;-62
2021/06/24 09:49:31;;;;;;;14.18;11.50;;;25.80;94.40;;;;;;5066698;28;20028;-63
2021/06/24 09:51:58;;;;;;;13.73;10.55;;;25.20;95.30;;;;;;5063497;28;20027;-63
2021/06/24 09:54:43;;;;;;;17.27;12.02;;;25.10;96.30;;;;;;5065697;28;20106;-62
2021/06/24 09:57:21;;;;;;;17.70;12.90;;;25.10;95.70;;;;;;5067941;28;20524;-61
2021/06/24 09:59:46;;;;;;;14.98;11.85;;;25.10;95.70;;;;;;5061541;28;20056;-61
2021/06/24 10:02:13;;;;;;;13.93;11.25;;;25.30;95.40;;;;;;5052198;28;20067;-62
2021/06/24 10:04:41;;;;;;;15.30;12.38;;;25.50;95.00;;;;;;5064841;28;20453;-60
2021/06/24 10:07:10;;;;;;;10.38;8.65;;;25.70;94.80;;;;;;5063827;28;20052;-61
2021/06/24 10:09:40;;;;;;;14.13;12.35;;;25.90;95.10;;;;;;5048864;28;20042;-63
2021/06/24 10:12:08;;;;;;;14.85;10.65;;;25.60;93.80;;;;;;5057556;28;20032;-64
2021/06/24 10:14:34;;;;;;;14.40;9.82;;;25.40;94.50;;;;;;5060649;28;20086;-63
2021/06/24 10:17:02;;;;;;;13.65;9.95;;;25.60;93.40;;;;;;5058334;28;20034;-63
2021/06/24 10:19:32;;;;;;;14.27;8.98;;;25.00;94.50;;;;;;5055810;28;20035;-65
2021/06/24 10:22:11;;;;;;;12.63;9.43;;;25.30;95.70;;;;;;5057858;28;20469;-63
2021/06/24 10:24:48;;;;;;;12.45;9.38;;;25.50;95.20;;;;;;5064705;28;20025;-62
2021/06/24 10:27:15;;;;;;;11.95;9.50;;;25.30;94.60;;;;;;5066195;28;20043;-64
2021/06/24 10:29:45;;;;;;;13.80;8.70;;;25.00;94.90;;;;;;5060216;28;20033;-61
2021/06/24 10:32:31;;;;;;;11.65;9.18;;;25.00;94.90;;;;;;5062016;28;20021;-61
2021/06/24 10:34:59;;;;;;;12.68;10.02;;;24.60;95.40;;;;;;5061894;28;20486;-63
2021/06/24 10:37:26;;;;;;;11.43;9.85;;;24.30;95.50;;;;;;5061469;28;20028;-62
2021/06/24 10:40:17;;;;;;;11.07;9.02;;;23.90;96.20;;;;;;5059317;28;20024;-62
2021/06/24 10:42:51;;;;;;;12.88;10.23;;;23.60;96.90;;;;;;5055751;28;20060;-62
2021/06/24 10:45:17;;;;;;;11.93;9.02;;;23.40;97.30;;;;;;5062309;28;20111;-63
2021/06/24 10:47:43;;;;;;;12.50;9.60;;;23.10;98.50;;;;;;5068196;28;20112;-62
2021/06/24 10:50:29;;;;;;;10.38;8.95;;;23.00;98.80;;;;;;5060027;28;20028;-61
2021/06/24 10:53:15;;;;;;;13.73;9.77;;;22.90;99.20;;;;;;5061568;28;20038;-62
2021/06/24 10:55:42;;;;;;;10.63;9.40;;;22.70;99.20;;;;;;5052232;28;20513;-62
2021/06/24 10:58:11;;;;;;;11.57;8.40;;;22.80;99.60;;;;;;5058861;28;20369;-64
2021/06/24 11:00:43;;;;;;;10.70;8.75;;;22.90;99.90;;;;;;5058861;28;20527;-59
2021/06/24 11:03:11;;;;;;;13.25;9.40;;;23.10;99.00;;;;;;5050914;28;20028;-62
2021/06/24 11:05:38;;;;;;;10.68;7.88;;;23.10;99.80;;;;;;5054075;28;20531;-61
2021/06/24 11:08:15;;;;;;;7.95;6.78;;;23.40;99.00;;;;;;5051679;28;20056;-61
2021/06/24 11:10:52;;;;;;;11.65;7.22;;;23.40;98.80;;;;;;5056628;28;20037;-60
2021/06/24 11:13:39;;;;;;;9.52;6.53;;;23.50;99.00;;;;;;5060759;28;20035;-62
2021/06/24 11:16:13;;;;;;;10.13;6.28;;;23.40;98.60;;;;;;5054712;28;20009;-61
2021/06/24 11:18:45;;;;;;;;;;;23.20;98.60;;;;;;5053071;28;20026;-58
2021/06/24 11:21:30;;;;;;;8.30;5.85;;;22.80;98.80;;;;;;5036839;28;19969;-61
2021/06/24 11:24:01;;;;;;;7.68;5.97;;;22.80;98.70;;;;;;5056215;28;20539;-62
2021/06/24 11:26:27;;;;;;;12.23;6.90;;;22.80;99.50;;;;;;5057977;28;20115;-62
2021/06/24 11:29:38;;;;;;;6.03;5.30;;;22.90;98.90;;;;;;5061930;28;20338;-61
2021/06/24 11:32:06;;;;;;;6.18;5.22;;;22.90;99.90;;;;;;5052212;28;20056;-61
2021/06/24 11:34:51;;;;;;;7.95;5.13;;;22.60;99.80;;;;;;5058159;28;20025;-61
2021/06/24 11:37:21;;;;;;;6.45;4.90;;;22.30;99.90;;;;;;5050146;28;20040;-62
2021/06/24 11:39:53;;;;;;;6.75;4.97;;;22.60;99.90;;;;;;5054360;28;20017;-61
2021/06/24 11:42:28;;;;;;;5.57;4.53;;;22.40;99.90;;;;;;5056576;28;20033;-62
2021/06/24 11:44:55;;;;;;;8.15;4.95;;;22.70;99.90;;;;;;5079823;28;20083;-63
2021/06/24 11:47:33;;;;;;;7.22;5.30;;;22.40;99.90;;;;;;5061916;28;20490;-61
2021/06/24 12:04:16;;;;;;;9.40;5.57;;;23.00;99.00;;;;;;5052259;28;20033;-61
2021/06/24 12:06:57;;;;;;;6.60;5.47;;;22.90;99.00;;;;;;5057222;28;20034;-63
2021/06/24 12:09:26;;;;;;;7.50;5.47;;;22.70;99.90;;;;;;5049183;28;20055;-62
2021/06/24 12:11:59;;;;;;;7.32;6.03;;;22.50;99.90;;;;;;5062622;28;20020;-62
2021/06/24 12:14:27;;;;;;;9.13;5.57;;;22.30;99.90;;;;;;5049306;28;20144;-61
2021/06/24 12:17:13;;;;;;;6.22;5.03;;;22.20;99.90;;;;;;5051905;28;20052;-61
2021/06/24 12:19:54;;;;;;;7.80;5.03;;;22.40;99.90;;;;;;5048884;28;20033;-61
2021/06/24 12:22:41;;;;;;;7.75;5.20;;;22.40;99.90;;;;;;5054774;28;20367;-60
2021/06/24 12:25:09;;;;;;;8.90;5.93;;;22.60;99.90;;;;;;5050069;28;20033;-60
2021/06/24 12:27:38;;;;;;;11.02;5.55;;;22.50;99.90;;;;;;5063052;28;20024;-63
2021/06/24 12:30:06;;;;;;;7.47;5.25;;;22.80;99.70;;;;;;5050909;28;20025;-63
2021/06/24 12:32:32;;;;;;;6.55;5.20;;;22.80;99.90;;;;;;5050920;28;20508;-63
2021/06/24 12:34:58;;;;;;;7.32;5.75;;;22.70;99.90;;;;;;5057021;28;20032;-61
2021/06/24 12:37:31;;;;;;;8.88;5.15;;;22.70;99.90;;;;;;5059546;28;20029;-63
2021/06/24 12:39:57;;;;;;;5.63;4.73;;;22.80;99.90;;;;;;5060161;28;20025;-62
2021/06/24 12:42:23;;;;;;;5.55;4.75;;;22.50;99.90;;;;;;5061182;28;20033;-62
2021/06/24 12:44:49;;;;;;;6.95;5.07;;;22.70;99.90;;;;;;5055419;28;20035;-64
2021/06/24 12:47:41;;;;;;;9.25;5.03;;;23.00;99.90;;;;;;5055517;28;20398;-62